Time;durP1;ratioP1;P1;durP2;ratioP2;P2;SDS_P1;SDS_P2;PMS_P1;PMS_P2;Temp;Humidity;BMP_temperature;BMP_pressure;BME280_temperature;BME280_humidity;BME280_pressure;Samples;Min_cycle;Max_cycle;Signal;HPM_P1;HPM_P2
2022/04/11 00:02:12;;;;;;;7.90;3.88;;;;;;;4.72;67.95;100702.00;5098017;28;20019;-68
2022/04/11 00:04:38;;;;;;;5.38;3.70;;;;;;;4.68;67.74;100696.94;5083358;28;20047;-66
2022/04/11 00:07:03;;;;;;;8.93;4.13;;;;;;;4.72;67.65;100695.81;5104924;28;20375;-67
2022/04/11 00:09:29;;;;;;;5.82;3.67;;;;;;;4.66;68.31;100694.38;5100470;28;20039;-66
2022/04/11 00:11:55;;;;;;;6.85;3.90;;;;;;;4.64;68.08;100698.91;5101621;28;20032;-67
2022/04/11 00:14:20;;;;;;;7.50;3.80;;;;;;;4.62;68.47;100697.28;5098198;28;20391;-67
2022/04/11 00:16:46;;;;;;;7.00;3.63;;;;;;;4.61;68.55;100700.84;5105153;28;20032;-67
2022/04/11 00:19:12;;;;;;;5.63;3.63;;;;;;;4.54;68.69;100697.72;5084157;28;20091;-68
2022/04/11 00:21:37;;;;;;;4.63;3.63;;;;;;;4.52;68.72;100698.75;5085722;28;20047;-67
2022/04/11 00:24:03;;;;;;;4.70;3.20;;;;;;;4.42;69.15;100710.84;5101726;28;20045;-67
2022/04/11 00:26:28;;;;;;;6.03;3.90;;;;;;;4.41;69.28;100690.53;5091244;28;20061;-67
2022/04/11 00:28:54;;;;;;;6.43;3.85;;;;;;;4.43;69.30;100693.97;5078778;28;20027;-68
2022/04/11 00:31:19;;;;;;;7.10;3.90;;;;;;;4.44;69.47;100706.28;5102798;28;20027;-66
2022/04/11 00:33:45;;;;;;;5.45;3.60;;;;;;;4.37;69.59;100716.41;5109131;28;20035;-66
2022/04/11 00:36:10;;;;;;;4.95;3.75;;;;;;;4.29;69.90;100715.97;5078389;28;20555;-66
2022/04/11 00:38:35;;;;;;;4.70;3.42;;;;;;;4.28;70.43;100710.75;5103149;28;20032;-66
2022/04/11 00:41:01;;;;;;;4.60;3.70;;;;;;;4.13;70.67;100701.84;5101063;28;20031;-67
2022/04/11 00:43:34;;;;;;;7.57;3.90;;;;;;;4.07;71.18;100712.78;5104310;28;20027;-66
2022/04/11 00:46:00;;;;;;;5.53;3.80;;;;;;;4.03;71.44;100710.41;5101912;28;20389;-66
2022/04/11 00:48:26;;;;;;;5.53;3.53;;;;;;;3.95;72.10;100718.78;5100124;28;20020;-66
2022/04/11 00:50:54;;;;;;;5.75;3.80;;;;;;;3.97;72.10;100716.06;5103005;28;20035;-68
2022/04/11 00:53:20;;;;;;;5.90;3.40;;;;;;;3.95;72.42;100720.56;5103264;28;20356;-67
2022/04/11 00:55:46;;;;;;;6.47;3.78;;;;;;;3.91;72.09;100729.66;5086283;28;20040;-69
2022/04/11 00:58:12;;;;;;;5.20;3.55;;;;;;;3.91;72.28;100730.50;5096501;28;20469;-68
2022/04/11 01:00:39;;;;;;;5.25;3.53;;;;;;;3.95;72.31;100740.00;5094680;28;20019;-66
2022/04/11 01:03:04;;;;;;;4.88;3.75;;;;;;;3.89;72.87;100726.19;5091890;28;20477;-68
2022/04/11 01:05:30;;;;;;;4.95;3.22;;;;;;;3.94;72.50;100732.13;5107142;28;20035;-67
2022/04/11 01:08:03;;;;;;;5.03;3.58;;;;;;;3.95;72.40;100717.91;5091131;28;20098;-67
2022/04/11 01:10:28;;;;;;;4.35;3.00;;;;;;;4.00;72.42;100742.41;5090694;28;20548;-67
2022/04/11 01:12:54;;;;;;;5.13;3.40;;;;;;;3.91;72.37;100722.56;5095689;28;20127;-68
2022/04/11 01:15:19;;;;;;;7.63;3.38;;;;;;;4.00;71.96;100730.00;5104036;28;20077;-67
2022/04/11 01:17:45;;;;;;;4.65;3.05;;;;;;;3.96;72.16;100736.41;5098787;28;20032;-67
2022/04/11 01:20:12;;;;;;;7.13;3.70;;;;;;;3.94;72.36;100748.06;5099275;28;20016;-67
2022/04/11 01:22:41;;;;;;;6.10;3.50;;;;;;;3.85;72.80;100745.88;5101591;28;20059;-67
2022/04/11 01:25:08;;;;;;;6.18;3.30;;;;;;;4.04;71.96;100759.88;5096962;28;20027;-66
2022/04/11 01:27:34;;;;;;;4.40;3.10;;;;;;;3.87;72.68;100751.97;5100232;28;20111;-67
2022/04/11 01:29:59;;;;;;;6.30;3.53;;;;;;;3.79;73.19;100749.72;5098168;28;20364;-67
2022/04/11 01:32:25;;;;;;;5.35;3.50;;;;;;;3.78;73.53;100755.13;5104935;28;20542;-67
2022/04/11 01:34:51;;;;;;;4.75;3.20;;;;;;;3.82;73.05;100749.56;5095231;28;20483;-68
2022/04/11 01:37:16;;;;;;;4.85;3.70;;;;;;;3.73;73.62;100749.19;5098225;28;20047;-68
2022/04/11 01:39:42;;;;;;;4.82;3.33;;;;;;;3.67;73.85;100746.84;5085543;28;20028;-68
2022/04/11 01:42:07;;;;;;;6.05;3.67;;;;;;;3.67;74.36;100760.97;5103581;28;20023;-67
2022/04/11 01:44:33;;;;;;;7.45;3.60;;;;;;;3.63;74.82;100753.25;5108562;28;20502;-67
2022/04/11 01:46:58;;;;;;;6.22;3.40;;;;;;;3.75;74.49;100763.22;5098421;28;20032;-68
2022/04/11 01:49:25;;;;;;;4.47;3.65;;;;;;;3.75;74.48;100765.88;5106598;28;20027;-68
2022/04/11 01:51:51;;;;;;;8.82;4.13;;;;;;;3.67;74.99;100760.09;5094449;28;20032;-67
2022/04/11 01:54:17;;;;;;;5.57;3.33;;;;;;;3.69;75.34;100753.81;5106232;28;20015;-67
2022/04/11 01:56:42;;;;;;;3.58;3.13;;;;;;;3.67;75.58;100755.69;5104663;28;20035;-67
2022/04/11 01:59:07;;;;;;;7.03;4.13;;;;;;;3.67;75.75;100760.97;5101632;28;20035;-67
2022/04/11 02:01:33;;;;;;;6.75;4.03;;;;;;;3.66;75.95;100767.22;5101046;28;20023;-67
2022/04/11 02:03:58;;;;;;;5.85;3.83;;;;;;;3.68;75.96;100751.25;5102372;28;20127;-68
2022/04/11 02:06:24;;;;;;;4.70;3.72;;;;;;;3.66;75.88;100759.28;5100165;28;20801;-68
2022/04/11 02:08:49;;;;;;;4.55;3.53;;;;;;;3.77;75.73;100758.72;5102320;28;20050;-67
2022/04/11 02:11:15;;;;;;;7.65;3.78;;;;;;;3.82;75.26;100775.22;5103016;28;20065;-66
2022/04/11 02:13:41;;;;;;;5.75;3.75;;;;;;;3.66;75.83;100753.09;5101573;28;20039;-68
2022/04/11 02:16:06;;;;;;;5.47;3.63;;;;;;;3.58;76.24;100757.97;5099602;28;20429;-68
2022/04/11 02:18:32;;;;;;;6.30;3.88;;;;;;;3.65;76.05;100765.50;5100315;28;20044;-68
2022/04/11 02:20:57;;;;;;;6.30;3.50;;;;;;;3.60;76.42;100778.16;5100740;28;20099;-68
2022/04/11 02:23:23;;;;;;;4.32;3.90;;;;;;;3.55;77.05;100784.63;5106947;28;20023;-68
2022/04/11 02:25:48;;;;;;;5.93;3.53;;;;;;;3.55;76.70;100779.34;5096458;28;20096;-68
2022/04/11 02:28:14;;;;;;;7.10;4.05;;;;;;;3.53;77.28;100789.16;5097608;28;20152;-68
2022/04/11 02:30:39;;;;;;;6.32;3.70;;;;;;;3.53;76.69;100783.84;5095204;28;20118;-66
2022/04/11 02:33:05;;;;;;;5.20;3.88;;;;;;;3.56;76.83;100783.69;5103101;28;20502;-66
2022/04/11 02:35:31;;;;;;;6.05;3.95;;;;;;;3.48;77.00;100780.59;5079664;28;20046;-68
2022/04/11 02:37:56;;;;;;;4.82;3.63;;;;;;;3.48;77.22;100783.25;5095008;28;20023;-68
2022/04/11 02:40:22;;;;;;;4.63;3.72;;;;;;;3.50;76.96;100784.00;5098762;28;20111;-67
2022/04/11 02:42:47;;;;;;;6.32;3.70;;;;;;;3.41;77.09;100780.03;5104544;28;20031;-68
2022/04/11 02:45:14;;;;;;;5.43;4.00;;;;;;;3.40;77.72;100788.94;5103260;28;20395;-68
2022/04/11 02:47:40;;;;;;;5.65;3.65;;;;;;;3.31;77.49;100778.78;5104017;28;20023;-68
2022/04/11 02:50:06;;;;;;;6.50;4.43;;;;;;;3.47;76.94;100792.97;5107356;28;20119;-68
2022/04/11 02:52:32;;;;;;;7.22;4.55;;;;;;;3.33;77.07;100776.94;5101956;28;20467;-67
2022/04/11 02:54:58;;;;;;;7.07;4.32;;;;;;;3.36;77.33;100797.13;5104128;28;20521;-68
2022/04/11 02:57:24;;;;;;;5.15;4.15;;;;;;;3.36;77.96;100799.78;5104266;28;20116;-67
2022/04/11 02:59:50;;;;;;;6.47;4.28;;;;;;;3.38;78.14;100809.34;5095746;28;20116;-68
2022/04/11 03:02:15;;;;;;;5.47;3.88;;;;;;;3.37;78.11;100796.19;5076659;28;20059;-68
2022/04/11 03:04:41;;;;;;;6.82;4.22;;;;;;;3.34;78.04;100804.28;5098808;28;20062;-67
2022/04/11 03:07:06;;;;;;;5.68;4.18;;;;;;;3.35;77.82;100800.72;5095451;28;20032;-66
2022/04/11 03:09:32;;;;;;;6.32;4.32;;;;;;;3.45;78.25;100804.63;5100070;28;20019;-65
2022/04/11 03:11:58;;;;;;;7.53;4.00;;;;;;;3.40;77.99;100806.63;5101304;28;20032;-67
2022/04/11 03:14:23;;;;;;;7.22;4.22;;;;;;;3.41;78.16;100801.25;5094897;28;20464;-67
2022/04/11 03:16:49;;;;;;;7.00;4.90;;;;;;;3.33;78.38;100795.50;5097496;28;20102;-66
2022/04/11 03:19:15;;;;;;;7.32;4.65;;;;;;;3.42;78.55;100792.34;5099578;28;20020;-65
2022/04/11 03:21:41;;;;;;;9.02;4.88;;;;;;;3.38;78.54;100801.41;5091744;28;20036;-66
2022/04/11 03:24:07;;;;;;;9.65;5.50;;;;;;;3.21;79.29;100792.56;5084833;28;20020;-67
2022/04/11 03:26:32;;;;;;;10.35;4.95;;;;;;;3.20;79.76;100797.03;5105842;28;20446;-66
2022/04/11 03:28:58;;;;;;;6.78;4.50;;;;;;;3.31;80.12;100823.00;5099533;28;20042;-66
2022/04/11 03:31:23;;;;;;;8.18;5.30;;;;;;;3.28;80.11;100812.53;5092613;28;20035;-66
2022/04/11 03:33:48;;;;;;;8.10;4.97;;;;;;;3.19;80.46;100797.13;5101145;28;20038;-66
2022/04/11 03:36:14;;;;;;;8.15;4.68;;;;;;;3.29;80.38;100820.41;5071231;28;20035;-67
2022/04/11 03:38:39;;;;;;;8.18;5.22;;;;;;;3.28;80.34;100824.00;5098012;28;20035;-67
2022/04/11 03:41:05;;;;;;;6.65;4.97;;;;;;;3.30;80.99;100834.53;5098063;28;20024;-67
2022/04/11 03:43:30;;;;;;;10.27;4.30;;;;;;;3.29;80.76;100832.81;5087863;28;20042;-66
2022/04/11 03:45:56;;;;;;;7.53;4.88;;;;;;;3.20;81.32;100833.28;5103440;28;20047;-66
2022/04/11 03:48:21;;;;;;;6.97;4.80;;;;;;;3.27;81.02;100827.59;5099706;28;20102;-67
2022/04/11 03:50:47;;;;;;;7.55;5.57;;;;;;;3.34;80.70;100838.75;5094572;28;20359;-66
2022/04/11 03:53:13;;;;;;;8.13;4.50;;;;;;;3.36;80.96;100839.53;5095730;28;20024;-67
2022/04/11 03:55:38;;;;;;;7.60;5.68;;;;;;;3.35;80.45;100829.88;5101524;28;20390;-68
2022/04/11 03:58:04;;;;;;;7.40;4.75;;;;;;;3.38;80.50;100843.81;5099930;28;20034;-67
2022/04/11 04:00:30;;;;;;;9.60;5.65;;;;;;;3.42;80.12;100832.13;5082680;28;20045;-67
2022/04/11 04:03:05;;;;;;;9.23;5.70;;;;;;;3.30;80.98;100850.44;5093769;28;20032;-67
2022/04/11 04:05:30;;;;;;;8.55;5.63;;;;;;;3.08;81.30;100833.88;5075438;28;20156;-66
2022/04/11 04:07:56;;;;;;;9.05;5.65;;;;;;;3.23;81.87;100862.28;5091015;28;20551;-65
2022/04/11 04:10:21;;;;;;;8.20;4.93;;;;;;;3.12;82.16;100843.38;5099420;28;20052;-66
2022/04/11 04:12:47;;;;;;;11.65;6.47;;;;;;;3.16;82.42;100863.53;5083351;28;20056;-66
2022/04/11 04:15:12;;;;;;;7.78;5.53;;;;;;;3.11;82.86;100865.53;5103326;28;20378;-66
2022/04/11 04:17:38;;;;;;;9.80;5.85;;;;;;;3.09;83.50;100870.91;5101141;28;20020;-65
2022/04/11 04:20:04;;;;;;;8.15;6.05;;;;;;;3.14;83.07;100878.63;5098657;28;20028;-68
2022/04/11 04:22:30;;;;;;;12.13;7.13;;;;;;;3.13;83.34;100879.56;5081822;28;20053;-66
2022/04/11 04:24:56;;;;;;;15.23;6.43;;;;;;;3.22;83.09;100881.78;5099868;28;20028;-67
2022/04/11 04:27:21;;;;;;;10.27;6.30;;;;;;;3.16;83.66;100877.59;5095390;28;21461;-66
2022/04/11 04:29:47;;;;;;;10.02;6.28;;;;;;;3.09;84.01;100878.84;5077021;28;20032;-67
2022/04/11 04:32:12;;;;;;;9.60;5.80;;;;;;;3.17;83.60;100889.94;5100736;28;20441;-66
2022/04/11 04:34:38;;;;;;;8.27;6.20;;;;;;;3.16;83.70;100882.91;5101419;28;20032;-65
2022/04/11 04:37:03;;;;;;;7.97;5.57;;;;;;;3.16;83.90;100896.16;5095927;28;20028;-67
2022/04/11 04:39:29;;;;;;;9.85;5.78;;;;;;;3.23;84.34;100897.59;5080565;28;20073;-67
2022/04/11 04:41:54;;;;;;;8.30;5.78;;;;;;;3.32;83.66;100902.44;5101073;28;20156;-66
2022/04/11 04:44:20;;;;;;;9.02;5.47;;;;;;;3.35;83.50;100912.88;5082074;28;20023;-67
2022/04/11 04:46:45;;;;;;;10.98;6.15;;;;;;;3.42;83.34;100902.84;5076268;28;20016;-67
2022/04/11 04:49:10;;;;;;;11.70;5.72;;;;;;;3.52;82.67;100904.94;5100737;28;20064;-66
2022/04/11 04:51:36;;;;;;;10.65;5.32;;;;;;;3.68;81.75;100905.91;5101552;28;20023;-67
2022/04/11 04:54:01;;;;;;;8.65;5.30;;;;;;;3.72;81.12;100906.63;5102441;28;20092;-67
2022/04/11 04:56:28;;;;;;;10.30;5.72;;;;;;;3.64;81.66;100911.47;5101027;28;20020;-67
2022/04/11 04:58:54;;;;;;;12.75;6.78;;;;;;;3.64;82.07;100920.25;5078603;28;20103;-67
2022/04/11 05:01:20;;;;;;;8.45;5.40;;;;;;;3.62;82.54;100919.50;5105520;28;20115;-65
2022/04/11 05:03:45;;;;;;;8.88;5.50;;;;;;;3.79;81.37;100914.19;5098274;28;20058;-66
2022/04/11 05:06:11;;;;;;;7.22;5.03;;;;;;;3.88;80.40;100912.88;5104898;28;20042;-65
2022/04/11 05:08:36;;;;;;;9.23;5.43;;;;;;;3.74;81.62;100904.75;5099817;28;20039;-64
2022/04/11 05:11:02;;;;;;;8.43;5.57;;;;;;;3.90;81.83;100929.59;5097484;28;20050;-67
2022/04/11 05:13:27;;;;;;;7.63;4.80;;;;;;;3.98;81.26;100922.06;5104744;28;20095;-66
2022/04/11 05:15:53;;;;;;;9.77;5.97;;;;;;;4.11;80.49;100931.13;5096268;28;20345;-66
2022/04/11 05:18:18;;;;;;;9.40;4.60;;;;;;;4.15;79.57;100917.63;5084105;28;20027;-67
2022/04/11 05:20:44;;;;;;;8.18;5.15;;;;;;;4.56;77.29;100934.03;5108776;28;20039;-66
2022/04/11 05:23:10;;;;;;;6.25;4.63;;;;;;;4.46;77.73;100933.63;5102063;28;20077;-67
2022/04/11 05:25:36;;;;;;;10.30;5.85;;;;;;;4.54;77.02;100917.28;5104533;28;20024;-67
2022/04/11 05:28:01;;;;;;;10.93;5.85;;;;;;;4.69;76.24;100927.09;5101333;28;20032;-66
2022/04/11 05:30:27;;;;;;;10.40;5.45;;;;;;;4.68;77.05;100936.03;5098904;28;20016;-65
2022/04/11 05:32:53;;;;;;;6.85;4.75;;;;;;;4.71;76.81;100936.69;5083199;28;20378;-66
2022/04/11 05:35:19;;;;;;;11.35;5.03;;;;;;;4.82;75.78;100935.25;5083212;28;20123;-66
2022/04/11 05:37:44;;;;;;;8.65;5.05;;;;;;;4.89;76.03;100928.66;5101013;28;20130;-67
2022/04/11 05:40:12;;;;;;;9.02;4.80;;;;;;;5.10;74.27;100933.69;5098993;28;20035;-66
2022/04/11 05:42:38;;;;;;;6.35;4.82;;;;;;;5.11;74.61;100931.84;5103147;28;20065;-65
2022/04/11 05:45:05;;;;;;;14.50;6.53;;;;;;;5.22;73.84;100934.78;5095871;28;20112;-66
2022/04/11 05:47:30;;;;;;;9.52;4.97;;;;;;;5.47;72.52;100925.31;5101077;28;20031;-65
2022/04/11 05:49:56;;;;;;;9.15;5.13;;;;;;;5.50;72.35;100925.16;5093457;28;20020;-68
2022/04/11 05:52:21;;;;;;;11.32;5.05;;;;;;;5.62;72.45;100934.22;5102950;28;20085;-66
2022/04/11 05:54:47;;;;;;;8.10;5.65;;;;;;;5.77;70.67;100909.41;5105402;28;20080;-67
2022/04/11 05:57:13;;;;;;;8.77;5.38;;;;;;;5.91;71.33;100931.63;5105838;28;20036;-66
2022/04/11 05:59:38;;;;;;;8.70;5.53;;;;;;;6.11;70.24;100928.63;5097888;28;20036;-68
2022/04/11 06:02:04;;;;;;;11.05;4.88;;;;;;;6.54;66.96;100927.72;5087230;28;20462;-66
2022/04/11 06:04:29;;;;;;;9.73;5.40;;;;;;;6.54;67.56;100937.53;5094011;28;20047;-67
2022/04/11 06:06:55;;;;;;;7.53;4.55;;;;;;;6.66;68.17;100942.97;5078067;28;20039;-66
2022/04/11 06:09:20;;;;;;;7.43;5.30;;;;;;;6.69;67.68;100907.28;5096962;28;20024;-67
2022/04/11 06:11:46;;;;;;;10.20;5.00;;;;;;;7.08;67.20;100942.09;5100174;28;20032;-67
2022/04/11 06:14:11;;;;;;;8.20;4.93;;;;;;;7.38;65.66;100948.13;5097951;28;20044;-65
2022/04/11 06:16:37;;;;;;;6.45;4.22;;;;;;;7.58;64.52;100945.00;5083221;28;20081;-66
2022/04/11 06:19:03;;;;;;;9.13;4.80;;;;;;;7.83;63.66;100942.44;5082890;28;20031;-66
2022/04/11 06:21:28;;;;;;;6.88;4.50;;;;;;;8.07;63.09;100946.16;5106123;28;20035;-66
2022/04/11 06:23:54;;;;;;;9.23;5.20;;;;;;;8.24;61.25;100929.84;5099962;28;20081;-68
2022/04/11 06:26:19;;;;;;;5.68;4.35;;;;;;;8.48;61.26;100929.97;5095899;28;20028;-68
2022/04/11 06:28:44;;;;;;;6.80;4.35;;;;;;;8.74;60.97;100935.19;5103430;28;20039;-68
2022/04/11 06:31:10;;;;;;;6.53;4.30;;;;;;;9.00;59.37;100933.38;5101579;28;20019;-68
2022/04/11 06:33:37;;;;;;;6.15;4.68;;;;;;;9.36;57.59;100936.06;5104394;28;20027;-67
2022/04/11 06:36:03;;;;;;;9.35;4.63;;;;;;;9.49;57.28;100923.47;5100986;28;20510;-67
2022/04/11 06:38:29;;;;;;;5.50;4.13;;;;;;;9.72;56.52;100927.97;5079305;28;20027;-67
2022/04/11 06:40:57;;;;;;;7.70;4.13;;;;;;;9.86;55.70;100900.16;5102608;28;20078;-67
2022/04/11 06:43:23;;;;;;;7.18;4.47;;;;;;;10.23;54.60;100931.25;5099672;28;20085;-66
2022/04/11 06:45:49;;;;;;;6.07;4.35;;;;;;;10.39;54.18;100927.28;5100924;28;20019;-67
2022/04/11 06:48:14;;;;;;;7.43;4.32;;;;;;;10.73;52.03;100925.47;5100169;28;20087;-67
2022/04/11 06:50:40;;;;;;;5.35;3.60;;;;;;;10.64;51.90;100923.53;5081370;28;20028;-68
2022/04/11 06:53:05;;;;;;;6.78;3.55;;;;;;;10.79;51.84;100928.53;5083769;28;20027;-67
2022/04/11 06:55:32;;;;;;;6.72;4.90;;;;;;;10.74;51.67;100911.94;5093920;28;20038;-67
2022/04/11 06:58:01;;;;;;;6.57;3.67;;;;;;;10.85;51.93;100920.00;5097411;28;20025;-66
2022/04/11 07:00:28;;;;;;;6.32;4.43;;;;;;;11.10;51.96;100924.28;5105565;28;20056;-66
2022/04/11 07:02:53;;;;;;;5.65;4.20;;;;;;;11.34;50.89;100925.81;5097127;28;20055;-67
2022/04/11 07:05:19;;;;;;;6.60;3.88;;;;;;;11.54;48.29;100914.31;5097422;28;20549;-67
2022/04/11 07:07:44;;;;;;;4.75;3.53;;;;;;;11.54;48.91;100926.88;5098898;28;20027;-67
2022/04/11 07:10:10;;;;;;;5.78;3.30;;;;;;;11.58;49.56;100922.97;5104259;28;20031;-68
2022/04/11 07:12:41;;;;;;;6.47;3.70;;;;;;;11.82;48.69;100922.78;5094649;28;20059;-68
2022/04/11 07:15:08;;;;;;;6.30;3.63;;;;;;;12.00;48.63;100922.13;5098852;28;20079;-68
2022/04/11 07:17:34;;;;;;;3.85;3.22;;;;;;;12.26;48.68;100922.59;5099517;28;20038;-68
2022/04/11 07:20:01;;;;;;;6.28;3.42;;;;;;;12.68;45.63;100924.28;5097363;28;20028;-66
2022/04/11 07:22:26;;;;;;;5.18;3.30;;;;;;;12.60;45.93;100916.00;5075199;28;20035;-66
2022/04/11 07:24:52;;;;;;;4.35;2.90;;;;;;;12.50;45.74;100926.72;5086230;28;20410;-67
2022/04/11 07:27:17;;;;;;;7.60;3.03;;;;;;;12.34;46.27;100915.56;5097780;28;20028;-66
2022/04/11 07:29:43;;;;;;;4.63;2.90;;;;;;;12.28;47.13;100926.03;5099740;28;20075;-67
2022/04/11 07:32:08;;;;;;;4.55;3.10;;;;;;;12.45;44.83;100928.09;5093936;28;20048;-66
2022/04/11 07:34:34;;;;;;;4.03;2.90;;;;;;;12.63;44.71;100922.00;5100420;28;20375;-67
2022/04/11 07:36:59;;;;;;;5.88;3.38;;;;;;;12.68;44.66;100921.59;5093510;28;20484;-67
2022/04/11 07:39:25;;;;;;;6.05;3.38;;;;;;;12.83;44.55;100925.66;5081416;28;20016;-67
2022/04/11 07:41:53;;;;;;;4.45;2.90;;;;;;;13.26;42.30;100923.59;5105273;28;20061;-67
2022/04/11 07:44:19;;;;;;;4.32;2.83;;;;;;;13.15;42.35;100921.84;5098611;28;20368;-68
2022/04/11 07:46:44;;;;;;;4.88;2.90;;;;;;;13.05;41.80;100933.56;5101411;28;20034;-68
2022/04/11 07:49:09;;;;;;;4.38;2.30;;;;;;;13.04;43.59;100932.72;5102952;28;20800;-67
2022/04/11 07:51:35;;;;;;;6.25;3.15;;;;;;;13.29;42.82;100934.09;5103831;28;20050;-67
2022/04/11 07:54:00;;;;;;;3.97;2.75;;;;;;;13.50;42.59;100934.84;5096870;28;20024;-67
2022/04/11 07:56:28;;;;;;;3.05;2.28;;;;;;;13.75;41.32;100926.25;5075863;28;20052;-67
2022/04/11 07:58:55;;;;;;;2.35;1.70;;;;;;;14.11;37.63;100928.25;5102004;28;20081;-68
2022/04/11 08:01:21;;;;;;;4.35;2.38;;;;;;;14.09;38.97;100927.53;5100522;28;20035;-67
2022/04/11 08:03:47;;;;;;;3.95;2.67;;;;;;;14.10;37.96;100915.75;5100728;28;20023;-67
2022/04/11 08:06:12;;;;;;;3.95;2.28;;;;;;;14.05;39.60;100923.41;5100716;28;20035;-67
2022/04/11 08:08:44;;;;;;;3.88;2.20;;;;;;;14.30;39.43;100927.41;5095574;28;20020;-68
2022/04/11 08:11:12;;;;;;;3.25;1.90;;;;;;;14.76;38.79;100925.63;5103133;28;20023;-68
2022/04/11 08:13:39;;;;;;;2.95;2.17;;;;;;;15.50;36.76;100927.31;5099083;28;20138;-69
2022/04/11 08:16:05;;;;;;;5.10;1.90;;;;;;;16.12;34.76;100920.19;5097253;28;20053;-68
2022/04/11 08:18:30;;;;;;;4.47;2.00;;;;;;;16.80;33.76;100914.81;5105660;28;20036;-67
2022/04/11 08:20:56;;;;;;;3.40;2.00;;;;;;;18.37;30.53;100903.97;5098003;28;20027;-69
2022/04/11 08:23:21;;;;;;;5.32;2.03;;;;;;;19.02;31.14;100924.59;5105972;28;20030;-69
2022/04/11 08:25:50;;;;;;;2.58;1.90;;;;;;;20.12;28.74;100917.16;5110493;28;20794;-68
2022/04/11 08:28:16;;;;;;;3.67;2.45;;;;;;;21.21;27.56;100916.44;5103853;28;20031;-68
2022/04/11 08:30:41;;;;;;;3.58;2.10;;;;;;;21.95;26.71;100904.38;5097751;28;20032;-68
2022/04/11 08:33:07;;;;;;;4.30;2.67;;;;;;;23.50;24.80;100905.84;5109174;28;20019;-69
2022/04/11 08:35:33;;;;;;;3.92;2.10;;;;;;;23.41;25.07;100913.41;5101233;28;20036;-69
2022/04/11 08:37:58;;;;;;;4.07;2.08;;;;;;;23.92;24.63;100905.59;5102790;28;20024;-69
2022/04/11 08:40:24;;;;;;;3.17;2.38;;;;;;;24.51;23.67;100898.34;5101685;28;20575;-68
2022/04/11 08:42:50;;;;;;;6.45;2.10;;;;;;;25.18;22.28;100893.44;5101758;28;20038;-69
2022/04/11 08:45:19;;;;;;;3.33;2.17;;;;;;;25.70;21.82;100892.44;5103971;28;20109;-67
2022/04/11 08:47:45;;;;;;;6.57;2.00;;;;;;;24.69;22.30;100898.56;5101582;28;20117;-68
2022/04/11 08:50:12;;;;;;;3.83;2.25;;;;;;;24.04;23.47;100899.34;5104046;28;20479;-66
2022/04/11 08:52:38;;;;;;;2.45;1.92;;;;;;;24.35;23.61;100896.03;5106642;28;20070;-68
2022/04/11 08:55:04;;;;;;;3.92;2.30;;;;;;;25.60;22.05;100894.81;5108187;28;20063;-67
2022/04/11 08:57:30;;;;;;;8.75;2.50;;;;;;;24.89;22.23;100893.91;5083948;28;20047;-67
2022/04/11 09:00:00;;;;;;;5.35;2.05;;;;;;;24.05;23.17;100900.16;5102228;28;20109;-68
2022/04/11 09:02:33;;;;;;;2.90;2.13;;;;;;;23.91;23.63;100881.97;5100982;28;20101;-68
2022/04/11 09:04:59;;;;;;;3.17;2.35;;;;;;;24.50;23.23;100899.38;5100893;28;20036;-69
2022/04/11 09:07:25;;;;;;;3.05;2.33;;;;;;;24.43;22.79;100899.41;5101509;28;20062;-69
2022/04/11 09:09:51;;;;;;;3.58;2.20;;;;;;;24.68;22.08;100893.31;5102559;28;20020;-69
2022/04/11 09:12:18;;;;;;;4.22;1.70;;;;;;;24.48;21.88;100900.66;5102470;28;20036;-68
2022/04/11 09:14:51;;;;;;;2.72;1.80;;;;;;;23.44;22.65;100899.31;5099957;28;20063;-69
2022/04/11 09:17:17;;;;;;;5.57;2.35;;;;;;;22.92;23.67;100901.72;5102772;28;20058;-69
2022/04/11 09:19:42;;;;;;;2.67;2.25;;;;;;;22.51;24.05;100894.47;5105202;28;20661;-68
2022/04/11 09:22:08;;;;;;;5.30;2.25;;;;;;;22.01;24.68;100887.22;5097140;28;20092;-69
2022/04/11 09:24:34;;;;;;;4.60;2.17;;;;;;;21.17;25.44;100887.00;5089890;28;20023;-68
2022/04/11 09:26:59;;;;;;;2.90;2.45;;;;;;;20.08;27.63;100902.16;5096750;28;20034;-69
2022/04/11 09:29:27;;;;;;;2.50;2.05;;;;;;;19.48;27.88;100899.28;5103851;28;20016;-69
2022/04/11 09:31:53;;;;;;;2.90;1.55;;;;;;;18.85;28.90;100894.91;5102594;28;20029;-69
2022/04/11 09:34:20;;;;;;;3.45;1.67;;;;;;;18.73;27.07;100904.47;5105250;28;20054;-68
2022/04/11 09:36:48;;;;;;;2.75;1.50;;;;;;;17.90;27.85;100892.88;5106583;28;20031;-69
2022/04/11 09:39:14;;;;;;;2.55;1.75;;;;;;;17.65;28.35;100904.75;5106241;28;20024;-69
2022/04/11 09:41:44;;;;;;;2.38;1.60;;;;;;;17.13;30.13;100900.44;5100551;28;20038;-69
2022/04/11 09:44:23;;;;;;;4.63;2.03;;;;;;;17.29;29.85;100899.66;5099299;28;20039;-69
2022/04/11 09:46:51;;;;;;;3.25;2.20;;;;;;;16.69;30.88;100887.13;5101019;28;20028;-69
2022/04/11 09:49:18;;;;;;;3.38;2.40;;;;;;;16.54;31.54;100896.88;5099719;28;20016;-67
2022/04/11 09:52:12;;;;;;;3.80;2.25;;;;;;;16.37;32.03;100900.41;5086393;28;20512;-69
2022/04/11 09:54:58;;;;;;;2.93;2.27;;;;;;;16.46;31.66;100902.22;5103177;28;20073;-69
2022/04/11 09:57:30;;;;;;;5.25;2.58;;;;;;;15.95;33.18;100894.81;5086314;28;20027;-68
2022/04/11 09:59:57;;;;;;;5.60;2.75;;;;;;;15.38;34.36;100908.75;5098844;28;20535;-69
2022/04/11 10:02:23;;;;;;;5.20;2.67;;;;;;;15.27;34.82;100911.63;5096530;28;20036;-70
2022/04/11 10:04:49;;;;;;;4.88;2.97;;;;;;;14.85;35.16;100899.56;5098734;28;20085;-70
2022/04/11 10:07:15;;;;;;;3.58;2.70;;;;;;;14.75;35.72;100906.84;5085185;28;20059;-69
2022/04/11 10:09:42;;;;;;;3.13;2.13;;;;;;;14.90;34.63;100894.59;5090410;28;20023;-70
2022/04/11 10:12:08;;;;;;;3.70;2.67;;;;;;;14.49;35.17;100912.06;5111286;28;20534;-68
2022/04/11 10:14:34;;;;;;;3.95;2.55;;;;;;;14.22;35.90;100906.50;5101692;28;20063;-67
2022/04/11 10:17:02;;;;;;;4.90;2.83;;;;;;;14.15;36.00;100909.94;5105541;28;20059;-68
2022/04/11 10:19:33;;;;;;;3.35;2.50;;;;;;;14.05;36.73;100909.94;5103160;28;20020;-69
2022/04/11 10:22:06;;;;;;;3.83;2.80;;;;;;;13.97;36.47;100909.81;5105916;28;20523;-67
2022/04/11 10:24:40;;;;;;;3.95;2.33;;;;;;;13.92;37.03;100914.75;5106133;28;20034;-68
2022/04/11 10:27:22;;;;;;;8.60;2.90;;;;;;;13.88;37.27;100915.16;5098261;28;20035;-68
2022/04/11 10:29:50;;;;;;;4.20;2.40;;;;;;;13.77;36.97;100898.13;5101705;28;20024;-69
2022/04/11 10:32:18;;;;;;;4.68;2.42;;;;;;;13.78;37.38;100912.47;5100281;28;20020;-69
2022/04/11 10:34:55;;;;;;;8.18;2.70;;;;;;;13.97;37.90;100915.19;5082863;28;20085;-68
2022/04/11 10:37:23;;;;;;;4.43;2.60;;;;;;;13.84;37.31;100906.53;5095925;28;20111;-68
2022/04/11 10:39:50;;;;;;;2.63;1.73;;;;;;;13.62;38.02;100909.47;5098284;28;20402;-69
2022/04/11 10:42:18;;;;;;;4.78;2.05;;;;;;;13.60;37.61;100911.44;5105395;28;20039;-69
2022/04/11 10:44:48;;;;;;;4.95;2.60;;;;;;;13.70;37.00;100912.31;5098410;28;20020;-68
2022/04/11 10:47:17;;;;;;;4.82;2.72;;;;;;;13.52;37.81;100908.63;5100505;28;20041;-69
2022/04/11 10:49:48;;;;;;;3.38;2.40;;;;;;;13.17;38.53;100909.09;5082323;28;20073;-69
2022/04/11 10:52:33;;;;;;;4.40;2.40;;;;;;;13.21;38.00;100917.75;5097895;28;20028;-69
2022/04/11 10:55:10;;;;;;;4.78;2.08;;;;;;;12.98;39.22;100913.50;5095706;28;20034;-68
2022/04/11 10:57:41;;;;;;;6.22;2.45;;;;;;;12.87;39.04;100908.22;5081219;28;20039;-68
2022/04/11 11:00:34;;;;;;;4.20;2.55;;;;;;;12.81;39.37;100914.16;5094011;28;20028;-68
2022/04/11 11:03:09;;;;;;;3.60;2.38;;;;;;;12.79;39.69;100911.59;5076997;28;20119;-69
2022/04/11 11:05:43;;;;;;;5.15;2.30;;;;;;;12.90;39.34;100914.19;5097547;28;20537;-68
2022/04/11 11:08:12;;;;;;;3.97;2.22;;;;;;;12.96;39.98;100907.44;5107134;28;20034;-69
2022/04/11 11:11:02;;;;;;;3.92;2.58;;;;;;;12.91;39.22;100904.28;5099666;28;20035;-68
2022/04/11 11:13:28;;;;;;;5.10;2.63;;;;;;;13.02;38.51;100913.13;5097694;28;20050;-69
2022/04/11 11:16:14;;;;;;;7.40;2.13;;;;;;;13.12;38.94;100905.09;5100717;28;20114;-68
2022/04/11 11:18:48;;;;;;;3.58;2.60;;;;;;;13.12;38.27;100908.66;5083186;28;20044;-68
2022/04/11 11:21:27;;;;;;;4.18;2.28;;;;;;;13.11;39.16;100900.69;5081891;28;20027;-68
2022/04/11 11:24:07;;;;;;;2.35;2.00;;;;;;;13.16;38.93;100898.47;5100850;28;20472;-68
2022/04/11 11:26:48;;;;;;;2.50;1.63;;;;;;;13.31;38.42;100892.53;5103506;28;20114;-69
2022/04/11 11:29:17;;;;;;;2.90;1.67;;;;;;;13.47;37.81;100897.38;5097778;28;20099;-68